sensor_id;sensor_type;location;lat;lon;timestamp;P1;durP1;ratioP1;P2;durP2;ratioP2
28160;SDS011;15448;51.956;7.670;2022-07-17T00:00:12;13.97;;;13.27;;
28160;SDS011;15448;51.956;7.670;2022-07-17T00:02:38;13.70;;;13.10;;
28160;SDS011;15448;51.956;7.670;2022-07-17T00:05:03;14.10;;;13.13;;
28160;SDS011;15448;51.956;7.670;2022-07-17T00:07:29;13.63;;;12.90;;
28160;SDS011;15448;51.956;7.670;2022-07-17T00:09:56;13.30;;;12.80;;
28160;SDS011;15448;51.956;7.670;2022-07-17T00:12:21;14.40;;;13.43;;
28160;SDS011;15448;51.956;7.670;2022-07-17T00:14:47;13.67;;;13.00;;
28160;SDS011;15448;51.956;7.670;2022-07-17T00:17:13;13.80;;;13.13;;
28160;SDS011;15448;51.956;7.670;2022-07-17T00:19:39;14.93;;;13.70;;
28160;SDS011;15448;51.956;7.670;2022-07-17T00:22:05;14.17;;;13.40;;
28160;SDS011;15448;51.956;7.670;2022-07-17T00:24:30;14.27;;;13.57;;
28160;SDS011;15448;51.956;7.670;2022-07-17T00:26:56;13.93;;;13.17;;
28160;SDS011;15448;51.956;7.670;2022-07-17T00:29:21;15.30;;;14.07;;
28160;SDS011;15448;51.956;7.670;2022-07-17T00:31:47;13.63;;;12.90;;
28160;SDS011;15448;51.956;7.670;2022-07-17T00:34:13;14.03;;;13.00;;
28160;SDS011;15448;51.956;7.670;2022-07-17T00:36:38;14.00;;;13.20;;
28160;SDS011;15448;51.956;7.670;2022-07-17T00:39:04;14.00;;;13.20;;
28160;SDS011;15448;51.956;7.670;2022-07-17T00:41:30;14.47;;;13.73;;
28160;SDS011;15448;51.956;7.670;2022-07-17T00:44:03;14.60;;;13.60;;
28160;SDS011;15448;51.956;7.670;2022-07-17T00:46:33;14.80;;;13.70;;
28160;SDS011;15448;51.956;7.670;2022-07-17T00:48:59;14.20;;;13.23;;
28160;SDS011;15448;51.956;7.670;2022-07-17T00:51:25;13.63;;;13.00;;
28160;SDS011;15448;51.956;7.670;2022-07-17T00:53:51;13.27;;;12.73;;
28160;SDS011;15448;51.956;7.670;2022-07-17T00:56:17;14.00;;;13.30;;
28160;SDS011;15448;51.956;7.670;2022-07-17T00:58:45;13.40;;;12.80;;
28160;SDS011;15448;51.956;7.670;2022-07-17T01:01:13;13.97;;;13.37;;
28160;SDS011;15448;51.956;7.670;2022-07-17T01:03:38;14.63;;;13.90;;
28160;SDS011;15448;51.956;7.670;2022-07-17T01:06:04;14.20;;;13.40;;
28160;SDS011;15448;51.956;7.670;2022-07-17T01:08:30;15.10;;;13.63;;
28160;SDS011;15448;51.956;7.670;2022-07-17T01:10:57;14.17;;;13.57;;
28160;SDS011;15448;51.956;7.670;2022-07-17T01:13:22;14.47;;;13.77;;
28160;SDS011;15448;51.956;7.670;2022-07-17T01:15:48;14.13;;;13.50;;
28160;SDS011;15448;51.956;7.670;2022-07-17T01:18:14;14.87;;;14.07;;
28160;SDS011;15448;51.956;7.670;2022-07-17T01:20:41;14.00;;;13.30;;
28160;SDS011;15448;51.956;7.670;2022-07-17T01:23:09;13.23;;;12.70;;
28160;SDS011;15448;51.956;7.670;2022-07-17T01:25:35;13.40;;;12.80;;
28160;SDS011;15448;51.956;7.670;2022-07-17T01:28:02;13.70;;;13.10;;
28160;SDS011;15448;51.956;7.670;2022-07-17T01:30:28;14.07;;;13.40;;
28160;SDS011;15448;51.956;7.670;2022-07-17T01:32:55;14.00;;;13.23;;
28160;SDS011;15448;51.956;7.670;2022-07-17T01:35:21;14.83;;;13.70;;
28160;SDS011;15448;51.956;7.670;2022-07-17T01:37:47;16.27;;;14.90;;
28160;SDS011;15448;51.956;7.670;2022-07-17T01:40:13;14.63;;;13.83;;
28160;SDS011;15448;51.956;7.670;2022-07-17T01:42:44;14.40;;;13.30;;
28160;SDS011;15448;51.956;7.670;2022-07-17T01:45:12;14.30;;;13.60;;
28160;SDS011;15448;51.956;7.670;2022-07-17T01:47:38;14.67;;;13.70;;
28160;SDS011;15448;51.956;7.670;2022-07-17T01:50:04;13.67;;;13.07;;
28160;SDS011;15448;51.956;7.670;2022-07-17T01:52:31;14.03;;;13.43;;
28160;SDS011;15448;51.956;7.670;2022-07-17T01:54:59;14.23;;;13.47;;
28160;SDS011;15448;51.956;7.670;2022-07-17T01:57:25;14.30;;;13.70;;
28160;SDS011;15448;51.956;7.670;2022-07-17T01:59:50;14.10;;;13.50;;
28160;SDS011;15448;51.956;7.670;2022-07-17T02:02:16;14.67;;;13.77;;
28160;SDS011;15448;51.956;7.670;2022-07-17T02:04:41;14.83;;;13.93;;
28160;SDS011;15448;51.956;7.670;2022-07-17T02:07:07;14.70;;;13.93;;
28160;SDS011;15448;51.956;7.670;2022-07-17T02:09:34;14.43;;;13.73;;
28160;SDS011;15448;51.956;7.670;2022-07-17T02:11:59;14.47;;;13.77;;
28160;SDS011;15448;51.956;7.670;2022-07-17T02:14:25;13.70;;;13.10;;
28160;SDS011;15448;51.956;7.670;2022-07-17T02:16:51;14.67;;;13.90;;
28160;SDS011;15448;51.956;7.670;2022-07-17T02:19:17;15.13;;;14.20;;
28160;SDS011;15448;51.956;7.670;2022-07-17T02:21:42;14.77;;;13.80;;
28160;SDS011;15448;51.956;7.670;2022-07-17T02:24:08;14.43;;;13.57;;
28160;SDS011;15448;51.956;7.670;2022-07-17T02:26:33;13.90;;;13.30;;
28160;SDS011;15448;51.956;7.670;2022-07-17T02:28:59;14.50;;;13.40;;
28160;SDS011;15448;51.956;7.670;2022-07-17T02:31:25;13.97;;;13.23;;
28160;SDS011;15448;51.956;7.670;2022-07-17T02:33:50;13.67;;;13.07;;
28160;SDS011;15448;51.956;7.670;2022-07-17T02:36:16;14.53;;;13.73;;
28160;SDS011;15448;51.956;7.670;2022-07-17T02:38:42;13.60;;;13.00;;
28160;SDS011;15448;51.956;7.670;2022-07-17T02:41:07;13.57;;;12.97;;
28160;SDS011;15448;51.956;7.670;2022-07-17T02:43:33;14.27;;;13.40;;
28160;SDS011;15448;51.956;7.670;2022-07-17T02:45:59;14.03;;;13.43;;
28160;SDS011;15448;51.956;7.670;2022-07-17T02:48:25;14.47;;;13.77;;
28160;SDS011;15448;51.956;7.670;2022-07-17T02:50:51;14.60;;;13.80;;
28160;SDS011;15448;51.956;7.670;2022-07-17T02:53:16;15.17;;;14.00;;
28160;SDS011;15448;51.956;7.670;2022-07-17T02:55:42;14.40;;;13.47;;
28160;SDS011;15448;51.956;7.670;2022-07-17T02:58:07;13.70;;;13.10;;
28160;SDS011;15448;51.956;7.670;2022-07-17T03:00:33;14.13;;;13.53;;
28160;SDS011;15448;51.956;7.670;2022-07-17T03:02:58;13.80;;;13.10;;
28160;SDS011;15448;51.956;7.670;2022-07-17T03:05:24;13.83;;;13.03;;
28160;SDS011;15448;51.956;7.670;2022-07-17T03:07:49;14.03;;;13.33;;
28160;SDS011;15448;51.956;7.670;2022-07-17T03:10:15;13.07;;;12.50;;
28160;SDS011;15448;51.956;7.670;2022-07-17T03:12:41;13.77;;;13.10;;
28160;SDS011;15448;51.956;7.670;2022-07-17T03:15:07;13.47;;;12.87;;
28160;SDS011;15448;51.956;7.670;2022-07-17T03:17:33;13.00;;;12.30;;
28160;SDS011;15448;51.956;7.670;2022-07-17T03:19:59;13.83;;;13.03;;
28160;SDS011;15448;51.956;7.670;2022-07-17T03:22:24;13.50;;;12.70;;
28160;SDS011;15448;51.956;7.670;2022-07-17T03:24:50;14.20;;;13.20;;
28160;SDS011;15448;51.956;7.670;2022-07-17T03:27:16;15.60;;;13.77;;
28160;SDS011;15448;51.956;7.670;2022-07-17T03:29:42;13.20;;;12.60;;
28160;SDS011;15448;51.956;7.670;2022-07-17T03:32:08;13.57;;;12.77;;
28160;SDS011;15448;51.956;7.670;2022-07-17T03:34:33;14.17;;;13.30;;
28160;SDS011;15448;51.956;7.670;2022-07-17T03:36:59;14.00;;;13.37;;
28160;SDS011;15448;51.956;7.670;2022-07-17T03:39:24;13.67;;;12.87;;
28160;SDS011;15448;51.956;7.670;2022-07-17T03:41:50;14.10;;;13.57;;
28160;SDS011;15448;51.956;7.670;2022-07-17T03:44:15;13.53;;;12.90;;
28160;SDS011;15448;51.956;7.670;2022-07-17T03:46:41;13.83;;;13.10;;
28160;SDS011;15448;51.956;7.670;2022-07-17T03:49:06;15.13;;;14.00;;
28160;SDS011;15448;51.956;7.670;2022-07-17T03:51:32;13.80;;;13.10;;
28160;SDS011;15448;51.956;7.670;2022-07-17T03:53:58;14.40;;;13.53;;
28160;SDS011;15448;51.956;7.670;2022-07-17T03:56:23;14.97;;;14.03;;
28160;SDS011;15448;51.956;7.670;2022-07-17T03:58:49;15.03;;;14.07;;
28160;SDS011;15448;51.956;7.670;2022-07-17T04:01:14;14.87;;;13.80;;
28160;SDS011;15448;51.956;7.670;2022-07-17T04:03:40;14.20;;;13.37;;
28160;SDS011;15448;51.956;7.670;2022-07-17T04:06:05;14.40;;;13.90;;
28160;SDS011;15448;51.956;7.670;2022-07-17T04:08:31;14.30;;;13.70;;
28160;SDS011;15448;51.956;7.670;2022-07-17T04:10:57;15.27;;;14.27;;
28160;SDS011;15448;51.956;7.670;2022-07-17T04:13:22;14.40;;;13.60;;
28160;SDS011;15448;51.956;7.670;2022-07-17T04:15:48;15.10;;;14.20;;
28160;SDS011;15448;51.956;7.670;2022-07-17T04:18:14;15.17;;;13.93;;
28160;SDS011;15448;51.956;7.670;2022-07-17T04:20:47;14.30;;;13.63;;
28160;SDS011;15448;51.956;7.670;2022-07-17T04:23:13;15.53;;;14.37;;
28160;SDS011;15448;51.956;7.670;2022-07-17T04:25:39;15.63;;;14.90;;
28160;SDS011;15448;51.956;7.670;2022-07-17T04:28:05;15.00;;;14.20;;
28160;SDS011;15448;51.956;7.670;2022-07-17T04:30:32;15.07;;;14.47;;
28160;SDS011;15448;51.956;7.670;2022-07-17T04:32:58;15.03;;;14.33;;
28160;SDS011;15448;51.956;7.670;2022-07-17T04:35:23;15.23;;;14.23;;
28160;SDS011;15448;51.956;7.670;2022-07-17T04:37:49;15.53;;;14.50;;
28160;SDS011;15448;51.956;7.670;2022-07-17T04:40:14;15.23;;;14.53;;
28160;SDS011;15448;51.956;7.670;2022-07-17T04:42:40;15.33;;;14.40;;
28160;SDS011;15448;51.956;7.670;2022-07-17T04:45:06;15.73;;;14.80;;
28160;SDS011;15448;51.956;7.670;2022-07-17T04:47:33;15.13;;;14.37;;
28160;SDS011;15448;51.956;7.670;2022-07-17T04:49:59;15.60;;;14.63;;
28160;SDS011;15448;51.956;7.670;2022-07-17T04:52:25;15.30;;;14.53;;
28160;SDS011;15448;51.956;7.670;2022-07-17T04:54:50;14.73;;;14.13;;
28160;SDS011;15448;51.956;7.670;2022-07-17T04:57:16;16.33;;;15.03;;
28160;SDS011;15448;51.956;7.670;2022-07-17T04:59:41;16.03;;;15.13;;
28160;SDS011;15448;51.956;7.670;2022-07-17T05:02:07;15.57;;;14.57;;
28160;SDS011;15448;51.956;7.670;2022-07-17T05:04:32;14.50;;;13.90;;
28160;SDS011;15448;51.956;7.670;2022-07-17T05:06:58;15.37;;;14.57;;
28160;SDS011;15448;51.956;7.670;2022-07-17T05:09:23;16.10;;;15.10;;
28160;SDS011;15448;51.956;7.670;2022-07-17T05:11:49;15.30;;;14.33;;
28160;SDS011;15448;51.956;7.670;2022-07-17T05:14:15;14.53;;;13.70;;
28160;SDS011;15448;51.956;7.670;2022-07-17T05:16:40;15.63;;;14.73;;
28160;SDS011;15448;51.956;7.670;2022-07-17T05:19:06;15.30;;;14.30;;
28160;SDS011;15448;51.956;7.670;2022-07-17T05:21:31;15.00;;;14.10;;
28160;SDS011;15448;51.956;7.670;2022-07-17T05:23:57;15.37;;;14.57;;
28160;SDS011;15448;51.956;7.670;2022-07-17T05:26:25;14.63;;;14.00;;
28160;SDS011;15448;51.956;7.670;2022-07-17T05:28:51;14.20;;;13.70;;
28160;SDS011;15448;51.956;7.670;2022-07-17T05:31:17;15.20;;;14.10;;
28160;SDS011;15448;51.956;7.670;2022-07-17T05:33:43;14.33;;;13.57;;
28160;SDS011;15448;51.956;7.670;2022-07-17T05:36:09;14.07;;;13.27;;
28160;SDS011;15448;51.956;7.670;2022-07-17T05:38:35;14.57;;;14.00;;
28160;SDS011;15448;51.956;7.670;2022-07-17T05:41:00;14.97;;;14.23;;
28160;SDS011;15448;51.956;7.670;2022-07-17T05:43:26;14.57;;;13.60;;
28160;SDS011;15448;51.956;7.670;2022-07-17T05:45:58;14.80;;;13.87;;
28160;SDS011;15448;51.956;7.670;2022-07-17T05:48:24;15.27;;;14.37;;
28160;SDS011;15448;51.956;7.670;2022-07-17T05:50:50;14.63;;;13.90;;
28160;SDS011;15448;51.956;7.670;2022-07-17T05:53:16;14.20;;;13.60;;
28160;SDS011;15448;51.956;7.670;2022-07-17T05:55:42;14.60;;;13.60;;
28160;SDS011;15448;51.956;7.670;2022-07-17T05:58:08;13.90;;;13.30;;
28160;SDS011;15448;51.956;7.670;2022-07-17T06:00:33;15.47;;;14.37;;
28160;SDS011;15448;51.956;7.670;2022-07-17T06:03:00;14.60;;;13.93;;
28160;SDS011;15448;51.956;7.670;2022-07-17T06:05:26;14.10;;;13.50;;
28160;SDS011;15448;51.956;7.670;2022-07-17T06:07:53;15.80;;;14.50;;
28160;SDS011;15448;51.956;7.670;2022-07-17T06:10:19;15.87;;;14.43;;
28160;SDS011;15448;51.956;7.670;2022-07-17T06:12:45;15.23;;;14.40;;
28160;SDS011;15448;51.956;7.670;2022-07-17T06:15:10;14.80;;;13.90;;
28160;SDS011;15448;51.956;7.670;2022-07-17T06:17:36;15.00;;;14.30;;
28160;SDS011;15448;51.956;7.670;2022-07-17T06:20:02;15.17;;;13.90;;
28160;SDS011;15448;51.956;7.670;2022-07-17T06:22:28;14.93;;;13.60;;
28160;SDS011;15448;51.956;7.670;2022-07-17T06:24:54;14.20;;;13.30;;
28160;SDS011;15448;51.956;7.670;2022-07-17T06:27:20;13.80;;;13.10;;
28160;SDS011;15448;51.956;7.670;2022-07-17T06:29:45;14.90;;;14.03;;
28160;SDS011;15448;51.956;7.670;2022-07-17T06:32:11;14.50;;;13.80;;
28160;SDS011;15448;51.956;7.670;2022-07-17T06:34:37;14.93;;;14.03;;
28160;SDS011;15448;51.956;7.670;2022-07-17T06:37:03;14.70;;;13.90;;
28160;SDS011;15448;51.956;7.670;2022-07-17T06:39:28;14.67;;;13.80;;
28160;SDS011;15448;51.956;7.670;2022-07-17T06:41:54;14.37;;;13.53;;
28160;SDS011;15448;51.956;7.670;2022-07-17T06:44:19;16.33;;;14.83;;
28160;SDS011;15448;51.956;7.670;2022-07-17T06:46:45;14.93;;;13.53;;
28160;SDS011;15448;51.956;7.670;2022-07-17T06:49:10;16.03;;;14.77;;
28160;SDS011;15448;51.956;7.670;2022-07-17T06:51:36;14.07;;;13.30;;
28160;SDS011;15448;51.956;7.670;2022-07-17T06:54:02;15.30;;;14.10;;
28160;SDS011;15448;51.956;7.670;2022-07-17T06:56:27;14.87;;;13.87;;
28160;SDS011;15448;51.956;7.670;2022-07-17T06:58:53;15.00;;;13.90;;
28160;SDS011;15448;51.956;7.670;2022-07-17T07:01:18;15.43;;;14.10;;
28160;SDS011;15448;51.956;7.670;2022-07-17T07:03:44;14.17;;;12.97;;
28160;SDS011;15448;51.956;7.670;2022-07-17T07:06:09;14.50;;;13.10;;
28160;SDS011;15448;51.956;7.670;2022-07-17T07:08:35;15.67;;;14.37;;
28160;SDS011;15448;51.956;7.670;2022-07-17T07:11:01;13.63;;;12.90;;
28160;SDS011;15448;51.956;7.670;2022-07-17T07:13:27;14.60;;;13.60;;
28160;SDS011;15448;51.956;7.670;2022-07-17T07:15:53;14.53;;;13.07;;
28160;SDS011;15448;51.956;7.670;2022-07-17T07:18:20;15.07;;;13.70;;
28160;SDS011;15448;51.956;7.670;2022-07-17T07:20:46;13.00;;;12.33;;
28160;SDS011;15448;51.956;7.670;2022-07-17T07:23:11;14.53;;;13.30;;
28160;SDS011;15448;51.956;7.670;2022-07-17T07:25:37;15.93;;;14.37;;
28160;SDS011;15448;51.956;7.670;2022-07-17T07:28:03;14.10;;;13.20;;
28160;SDS011;15448;51.956;7.670;2022-07-17T07:30:29;13.40;;;12.63;;
28160;SDS011;15448;51.956;7.670;2022-07-17T07:32:54;13.90;;;13.10;;
28160;SDS011;15448;51.956;7.670;2022-07-17T07:35:20;14.73;;;13.37;;
28160;SDS011;15448;51.956;7.670;2022-07-17T07:37:46;15.60;;;13.87;;
28160;SDS011;15448;51.956;7.670;2022-07-17T07:40:11;14.07;;;13.03;;
28160;SDS011;15448;51.956;7.670;2022-07-17T07:42:37;13.90;;;13.00;;
28160;SDS011;15448;51.956;7.670;2022-07-17T07:45:04;13.50;;;12.93;;
28160;SDS011;15448;51.956;7.670;2022-07-17T07:47:30;15.07;;;14.03;;
28160;SDS011;15448;51.956;7.670;2022-07-17T07:49:55;13.77;;;13.17;;
28160;SDS011;15448;51.956;7.670;2022-07-17T07:52:21;14.07;;;13.00;;
28160;SDS011;15448;51.956;7.670;2022-07-17T07:54:46;14.63;;;13.40;;
28160;SDS011;15448;51.956;7.670;2022-07-17T07:57:12;14.53;;;13.80;;
28160;SDS011;15448;51.956;7.670;2022-07-17T07:59:37;13.70;;;13.00;;
28160;SDS011;15448;51.956;7.670;2022-07-17T08:02:03;13.23;;;12.53;;
28160;SDS011;15448;51.956;7.670;2022-07-17T08:04:29;14.60;;;13.50;;
28160;SDS011;15448;51.956;7.670;2022-07-17T08:06:55;13.87;;;12.80;;
28160;SDS011;15448;51.956;7.670;2022-07-17T08:09:21;13.50;;;13.00;;
28160;SDS011;15448;51.956;7.670;2022-07-17T08:11:47;13.33;;;12.63;;
28160;SDS011;15448;51.956;7.670;2022-07-17T08:14:12;14.33;;;13.13;;
28160;SDS011;15448;51.956;7.670;2022-07-17T08:16:38;13.93;;;13.23;;
28160;SDS011;15448;51.956;7.670;2022-07-17T08:19:03;14.00;;;13.40;;
28160;SDS011;15448;51.956;7.670;2022-07-17T08:21:29;14.47;;;13.60;;
28160;SDS011;15448;51.956;7.670;2022-07-17T08:23:55;13.77;;;13.03;;
28160;SDS011;15448;51.956;7.670;2022-07-17T08:26:20;16.73;;;15.00;;
28160;SDS011;15448;51.956;7.670;2022-07-17T08:28:46;13.83;;;12.83;;
28160;SDS011;15448;51.956;7.670;2022-07-17T08:31:12;13.93;;;12.90;;
28160;SDS011;15448;51.956;7.670;2022-07-17T08:33:37;14.47;;;13.33;;
28160;SDS011;15448;51.956;7.670;2022-07-17T08:36:03;13.07;;;12.37;;
28160;SDS011;15448;51.956;7.670;2022-07-17T08:38:29;13.27;;;12.23;;
28160;SDS011;15448;51.956;7.670;2022-07-17T08:40:54;13.43;;;12.73;;
28160;SDS011;15448;51.956;7.670;2022-07-17T08:43:20;13.83;;;12.93;;
28160;SDS011;15448;51.956;7.670;2022-07-17T08:45:46;14.23;;;13.30;;
28160;SDS011;15448;51.956;7.670;2022-07-17T08:48:14;13.10;;;12.60;;
28160;SDS011;15448;51.956;7.670;2022-07-17T08:50:41;13.97;;;13.17;;
28160;SDS011;15448;51.956;7.670;2022-07-17T08:53:07;12.90;;;12.20;;
28160;SDS011;15448;51.956;7.670;2022-07-17T08:55:33;13.87;;;13.00;;
28160;SDS011;15448;51.956;7.670;2022-07-17T08:57:59;12.20;;;11.80;;
28160;SDS011;15448;51.956;7.670;2022-07-17T09:00:26;12.93;;;12.23;;
28160;SDS011;15448;51.956;7.670;2022-07-17T09:05:48;13.97;;;13.07;;
28160;SDS011;15448;51.956;7.670;2022-07-17T09:08:19;13.33;;;12.30;;
28160;SDS011;15448;51.956;7.670;2022-07-17T09:10:47;12.40;;;11.70;;
28160;SDS011;15448;51.956;7.670;2022-07-17T09:13:14;12.63;;;11.93;;
28160;SDS011;15448;51.956;7.670;2022-07-17T09:15:56;13.50;;;12.43;;
28160;SDS011;15448;51.956;7.670;2022-07-17T09:18:23;13.10;;;12.03;;
28160;SDS011;15448;51.956;7.670;2022-07-17T09:20:51;13.20;;;12.10;;
28160;SDS011;15448;51.956;7.670;2022-07-17T09:23:23;13.43;;;12.50;;
28160;SDS011;15448;51.956;7.670;2022-07-17T09:25:54;12.23;;;11.50;;
28160;SDS011;15448;51.956;7.670;2022-07-17T09:28:21;13.83;;;12.30;;
28160;SDS011;15448;51.956;7.670;2022-07-17T09:30:48;13.40;;;12.50;;
28160;SDS011;15448;51.956;7.670;2022-07-17T09:33:19;13.87;;;12.77;;
28160;SDS011;15448;51.956;7.670;2022-07-17T09:35:50;13.40;;;12.50;;
28160;SDS011;15448;51.956;7.670;2022-07-17T09:38:24;13.00;;;12.37;;
28160;SDS011;15448;51.956;7.670;2022-07-17T09:43:40;13.60;;;12.80;;
28160;SDS011;15448;51.956;7.670;2022-07-17T09:46:09;13.23;;;12.13;;
28160;SDS011;15448;51.956;7.670;2022-07-17T09:48:40;13.07;;;12.40;;
28160;SDS011;15448;51.956;7.670;2022-07-17T09:51:11;13.33;;;12.40;;
28160;SDS011;15448;51.956;7.670;2022-07-17T09:53:38;12.03;;;11.27;;
28160;SDS011;15448;51.956;7.670;2022-07-17T09:56:04;13.73;;;12.70;;
28160;SDS011;15448;51.956;7.670;2022-07-17T09:58:31;13.63;;;12.73;;
28160;SDS011;15448;51.956;7.670;2022-07-17T10:01:00;12.90;;;12.10;;
28160;SDS011;15448;51.956;7.670;2022-07-17T10:03:26;13.30;;;12.60;;
28160;SDS011;15448;51.956;7.670;2022-07-17T10:05:51;14.13;;;13.07;;
28160;SDS011;15448;51.956;7.670;2022-07-17T10:08:17;11.63;;;11.13;;
28160;SDS011;15448;51.956;7.670;2022-07-17T10:10:44;13.33;;;12.43;;
28160;SDS011;15448;51.956;7.670;2022-07-17T10:13:10;12.60;;;11.50;;
28160;SDS011;15448;51.956;7.670;2022-07-17T10:15:37;13.33;;;12.20;;
28160;SDS011;15448;51.956;7.670;2022-07-17T10:18:04;12.33;;;11.43;;
28160;SDS011;15448;51.956;7.670;2022-07-17T10:20:30;11.00;;;10.60;;
28160;SDS011;15448;51.956;7.670;2022-07-17T10:22:56;11.70;;;11.13;;
28160;SDS011;15448;51.956;7.670;2022-07-17T10:25:22;12.40;;;11.60;;
28160;SDS011;15448;51.956;7.670;2022-07-17T10:27:54;13.23;;;12.00;;
28160;SDS011;15448;51.956;7.670;2022-07-17T10:30:25;12.40;;;11.70;;
28160;SDS011;15448;51.956;7.670;2022-07-17T10:32:53;13.07;;;12.47;;
28160;SDS011;15448;51.956;7.670;2022-07-17T10:35:21;12.27;;;11.70;;
28160;SDS011;15448;51.956;7.670;2022-07-17T10:37:46;13.00;;;11.97;;
28160;SDS011;15448;51.956;7.670;2022-07-17T10:40:25;11.97;;;11.47;;
28160;SDS011;15448;51.956;7.670;2022-07-17T10:43:04;12.70;;;11.80;;
28160;SDS011;15448;51.956;7.670;2022-07-17T10:45:35;12.83;;;12.13;;
28160;SDS011;15448;51.956;7.670;2022-07-17T10:48:11;12.03;;;11.53;;
28160;SDS011;15448;51.956;7.670;2022-07-17T10:50:43;12.90;;;12.20;;
28160;SDS011;15448;51.956;7.670;2022-07-17T10:55:43;13.03;;;12.43;;
28160;SDS011;15448;51.956;7.670;2022-07-17T10:58:14;12.60;;;12.10;;
28160;SDS011;15448;51.956;7.670;2022-07-17T11:03:47;12.73;;;12.10;;
28160;SDS011;15448;51.956;7.670;2022-07-17T11:09:11;13.63;;;12.60;;
28160;SDS011;15448;51.956;7.670;2022-07-17T11:11:38;13.93;;;12.97;;
28160;SDS011;15448;51.956;7.670;2022-07-17T11:14:15;12.77;;;12.07;;
28160;SDS011;15448;51.956;7.670;2022-07-17T11:16:52;13.13;;;11.93;;
28160;SDS011;15448;51.956;7.670;2022-07-17T11:19:35;12.30;;;11.60;;
28160;SDS011;15448;51.956;7.670;2022-07-17T11:22:08;12.47;;;11.87;;
28160;SDS011;15448;51.956;7.670;2022-07-17T11:24:36;13.17;;;12.67;;
28160;SDS011;15448;51.956;7.670;2022-07-17T11:27:02;14.57;;;13.17;;
28160;SDS011;15448;51.956;7.670;2022-07-17T11:29:28;12.93;;;12.23;;
28160;SDS011;15448;51.956;7.670;2022-07-17T11:31:56;13.33;;;12.60;;
28160;SDS011;15448;51.956;7.670;2022-07-17T11:34:24;12.20;;;11.70;;
28160;SDS011;15448;51.956;7.670;2022-07-17T11:36:50;13.57;;;12.87;;
28160;SDS011;15448;51.956;7.670;2022-07-17T11:39:17;13.53;;;12.83;;
28160;SDS011;15448;51.956;7.670;2022-07-17T11:41:47;13.57;;;12.87;;
28160;SDS011;15448;51.956;7.670;2022-07-17T11:44:20;13.87;;;12.97;;
28160;SDS011;15448;51.956;7.670;2022-07-17T11:46:49;13.47;;;12.87;;
28160;SDS011;15448;51.956;7.670;2022-07-17T11:49:32;12.93;;;12.23;;
28160;SDS011;15448;51.956;7.670;2022-07-17T11:52:06;15.87;;;14.70;;
28160;SDS011;15448;51.956;7.670;2022-07-17T11:54:52;14.33;;;13.53;;
28160;SDS011;15448;51.956;7.670;2022-07-17T11:57:20;14.83;;;13.63;;
28160;SDS011;15448;51.956;7.670;2022-07-17T11:59:46;14.00;;;13.30;;
28160;SDS011;15448;51.956;7.670;2022-07-17T12:02:16;15.37;;;13.20;;
28160;SDS011;15448;51.956;7.670;2022-07-17T12:04:54;12.90;;;12.30;;
28160;SDS011;15448;51.956;7.670;2022-07-17T12:07:20;13.37;;;12.87;;
28160;SDS011;15448;51.956;7.670;2022-07-17T12:09:48;14.23;;;13.10;;
28160;SDS011;15448;51.956;7.670;2022-07-17T12:14:52;14.10;;;13.10;;
28160;SDS011;15448;51.956;7.670;2022-07-17T12:17:18;15.33;;;13.70;;
28160;SDS011;15448;51.956;7.670;2022-07-17T12:19:44;13.53;;;12.97;;
28160;SDS011;15448;51.956;7.670;2022-07-17T12:22:10;13.73;;;13.00;;
28160;SDS011;15448;51.956;7.670;2022-07-17T12:24:39;14.20;;;13.27;;
28160;SDS011;15448;51.956;7.670;2022-07-17T12:27:07;13.37;;;12.50;;
28160;SDS011;15448;51.956;7.670;2022-07-17T12:29:34;13.67;;;13.07;;
28160;SDS011;15448;51.956;7.670;2022-07-17T12:34:30;13.97;;;13.37;;
28160;SDS011;15448;51.956;7.670;2022-07-17T12:36:56;14.03;;;13.40;;
28160;SDS011;15448;51.956;7.670;2022-07-17T12:39:21;14.40;;;13.60;;
28160;SDS011;15448;51.956;7.670;2022-07-17T12:41:47;14.27;;;13.53;;
28160;SDS011;15448;51.956;7.670;2022-07-17T12:44:12;13.70;;;13.10;;
28160;SDS011;15448;51.956;7.670;2022-07-17T12:46:38;13.37;;;12.60;;
28160;SDS011;15448;51.956;7.670;2022-07-17T12:49:04;13.87;;;13.27;;
28160;SDS011;15448;51.956;7.670;2022-07-17T12:51:29;14.43;;;13.80;;
28160;SDS011;15448;51.956;7.670;2022-07-17T12:53:56;15.37;;;14.47;;
28160;SDS011;15448;51.956;7.670;2022-07-17T12:56:22;14.80;;;14.10;;
28160;SDS011;15448;51.956;7.670;2022-07-17T12:58:47;14.93;;;14.17;;
28160;SDS011;15448;51.956;7.670;2022-07-17T13:01:13;14.30;;;13.60;;
28160;SDS011;15448;51.956;7.670;2022-07-17T13:03:39;14.40;;;13.77;;
28160;SDS011;15448;51.956;7.670;2022-07-17T13:06:05;15.57;;;14.67;;
28160;SDS011;15448;51.956;7.670;2022-07-17T13:08:31;14.40;;;13.80;;
28160;SDS011;15448;51.956;7.670;2022-07-17T13:10:57;15.27;;;13.97;;
28160;SDS011;15448;51.956;7.670;2022-07-17T13:13:23;15.03;;;13.93;;
28160;SDS011;15448;51.956;7.670;2022-07-17T13:15:49;14.80;;;13.80;;
28160;SDS011;15448;51.956;7.670;2022-07-17T13:18:14;13.00;;;12.40;;
28160;SDS011;15448;51.956;7.670;2022-07-17T13:20:40;16.17;;;14.97;;
28160;SDS011;15448;51.956;7.670;2022-07-17T13:23:06;92.90;;;24.07;;
28160;SDS011;15448;51.956;7.670;2022-07-17T13:25:32;90.97;;;26.97;;
28160;SDS011;15448;51.956;7.670;2022-07-17T13:27:58;207.43;;;58.13;;
28160;SDS011;15448;51.956;7.670;2022-07-17T13:30:23;137.43;;;44.40;;
28160;SDS011;15448;51.956;7.670;2022-07-17T13:32:49;91.00;;;37.60;;
28160;SDS011;15448;51.956;7.670;2022-07-17T13:35:15;70.17;;;29.00;;
28160;SDS011;15448;51.956;7.670;2022-07-17T13:37:42;59.93;;;28.37;;
28160;SDS011;15448;51.956;7.670;2022-07-17T13:40:09;69.03;;;27.40;;
28160;SDS011;15448;51.956;7.670;2022-07-17T13:42:35;58.07;;;21.97;;
28160;SDS011;15448;51.956;7.670;2022-07-17T13:45:00;45.90;;;22.40;;
28160;SDS011;15448;51.956;7.670;2022-07-17T13:47:27;36.20;;;21.60;;
28160;SDS011;15448;51.956;7.670;2022-07-17T13:49:52;29.57;;;19.50;;
28160;SDS011;15448;51.956;7.670;2022-07-17T13:52:18;21.97;;;17.47;;
28160;SDS011;15448;51.956;7.670;2022-07-17T13:54:43;16.67;;;15.23;;
28160;SDS011;15448;51.956;7.670;2022-07-17T13:57:09;20.83;;;16.30;;
28160;SDS011;15448;51.956;7.670;2022-07-17T13:59:34;28.27;;;16.73;;
28160;SDS011;15448;51.956;7.670;2022-07-17T14:02:00;16.70;;;14.90;;
28160;SDS011;15448;51.956;7.670;2022-07-17T14:04:25;15.17;;;13.77;;
28160;SDS011;15448;51.956;7.670;2022-07-17T14:06:51;15.20;;;14.20;;
28160;SDS011;15448;51.956;7.670;2022-07-17T14:09:16;14.97;;;14.20;;
28160;SDS011;15448;51.956;7.670;2022-07-17T14:11:42;15.90;;;14.60;;
28160;SDS011;15448;51.956;7.670;2022-07-17T14:14:08;14.73;;;13.90;;
28160;SDS011;15448;51.956;7.670;2022-07-17T14:16:33;15.40;;;14.20;;
28160;SDS011;15448;51.956;7.670;2022-07-17T14:18:59;15.57;;;14.17;;
28160;SDS011;15448;51.956;7.670;2022-07-17T14:21:26;14.47;;;13.50;;
28160;SDS011;15448;51.956;7.670;2022-07-17T14:23:51;15.10;;;13.70;;
28160;SDS011;15448;51.956;7.670;2022-07-17T14:26:17;16.47;;;15.43;;
28160;SDS011;15448;51.956;7.670;2022-07-17T14:28:42;15.40;;;14.50;;
28160;SDS011;15448;51.956;7.670;2022-07-17T14:31:08;15.53;;;14.50;;
28160;SDS011;15448;51.956;7.670;2022-07-17T14:33:33;14.30;;;13.63;;
28160;SDS011;15448;51.956;7.670;2022-07-17T14:35:59;13.70;;;13.00;;